sensor_id;sensor_type;location;lat;lon;timestamp;temperature;humidity
71514;DHT22;59335;46.652;21.272;2023-02-11T00:01:29;21.23;26.77
71514;DHT22;59335;46.652;21.272;2023-02-11T00:04:32;21.20;26.76
71514;DHT22;59335;46.652;21.272;2023-02-11T00:07:35;21.20;26.67
71514;DHT22;59335;46.652;21.272;2023-02-11T00:10:41;21.19;26.74
71514;DHT22;59335;46.652;21.272;2023-02-11T00:13:45;21.21;26.67
71514;DHT22;59335;46.652;21.272;2023-02-11T00:16:47;21.24;26.67
71514;DHT22;59335;46.652;21.272;2023-02-11T00:19:51;21.20;26.67
71514;DHT22;59335;46.652;21.272;2023-02-11T00:22:54;21.19;26.62
71514;DHT22;59335;46.652;21.272;2023-02-11T00:25:57;21.15;26.63
71514;DHT22;59335;46.652;21.272;2023-02-11T00:29:00;21.15;26.66
71514;DHT22;59335;46.652;21.272;2023-02-11T00:32:06;21.14;26.63
71514;DHT22;59335;46.652;21.272;2023-02-11T00:35:10;21.20;26.57
71514;DHT22;59335;46.652;21.272;2023-02-11T00:38:13;21.21;26.48
71514;DHT22;59335;46.652;21.272;2023-02-11T00:41:17;21.15;26.57
71514;DHT22;59335;46.652;21.272;2023-02-11T00:44:20;21.15;26.48
71514;DHT22;59335;46.652;21.272;2023-02-11T00:47:23;21.19;26.44
71514;DHT22;59335;46.652;21.272;2023-02-11T00:50:26;21.19;26.40
71514;DHT22;59335;46.652;21.272;2023-02-11T00:53:31;21.17;26.36
71514;DHT22;59335;46.652;21.272;2023-02-11T00:56:34;21.14;26.38
71514;DHT22;59335;46.652;21.272;2023-02-11T00:59:37;21.10;26.42
71514;DHT22;59335;46.652;21.272;2023-02-11T01:02:40;21.11;26.42
71514;DHT22;59335;46.652;21.272;2023-02-11T01:05:45;21.11;26.34
71514;DHT22;59335;46.652;21.272;2023-02-11T01:08:47;21.14;26.34
71514;DHT22;59335;46.652;21.272;2023-02-11T01:11:50;21.14;26.33
71514;DHT22;59335;46.652;21.272;2023-02-11T01:14:53;21.15;26.24
71514;DHT22;59335;46.652;21.272;2023-02-11T01:17:56;21.08;26.31
71514;DHT22;59335;46.652;21.272;2023-02-11T01:20:59;21.08;26.25
71514;DHT22;59335;46.652;21.272;2023-02-11T01:24:02;21.11;26.27
71514;DHT22;59335;46.652;21.272;2023-02-11T01:27:04;21.10;26.14
71514;DHT22;59335;46.652;21.272;2023-02-11T01:30:11;21.10;26.22
71514;DHT22;59335;46.652;21.272;2023-02-11T01:33:15;21.10;26.14
71514;DHT22;59335;46.652;21.272;2023-02-11T01:36:18;21.10;26.10
71514;DHT22;59335;46.652;21.272;2023-02-11T01:39:20;21.13;26.08
71514;DHT22;59335;46.652;21.272;2023-02-11T01:42:23;21.13;26.10
71514;DHT22;59335;46.652;21.272;2023-02-11T01:48:50;21.07;26.13
71514;DHT22;59335;46.652;21.272;2023-02-11T01:52:00;21.07;26.13
71514;DHT22;59335;46.652;21.272;2023-02-11T01:55:06;21.03;26.08
71514;DHT22;59335;46.652;21.272;2023-02-11T01:58:31;21.07;26.01
71514;DHT22;59335;46.652;21.272;2023-02-11T02:01:36;21.07;25.98
71514;DHT22;59335;46.652;21.272;2023-02-11T02:04:59;21.07;25.94
71514;DHT22;59335;46.652;21.272;2023-02-11T02:11:10;21.04;25.87
71514;DHT22;59335;46.652;21.272;2023-02-11T02:14:13;21.02;25.99
71514;DHT22;59335;46.652;21.272;2023-02-11T02:17:37;21.07;25.93
71514;DHT22;59335;46.652;21.272;2023-02-11T02:24:37;21.03;25.91
71514;DHT22;59335;46.652;21.272;2023-02-11T02:31:55;21.06;25.86
71514;DHT22;59335;46.652;21.272;2023-02-11T02:38:26;21.06;25.76
71514;DHT22;59335;46.652;21.272;2023-02-11T02:41:32;21.07;25.75
71514;DHT22;59335;46.652;21.272;2023-02-11T02:44:36;21.04;25.73
71514;DHT22;59335;46.652;21.272;2023-02-11T02:47:39;21.03;25.70
71514;DHT22;59335;46.652;21.272;2023-02-11T02:50:42;21.02;25.70
71514;DHT22;59335;46.652;21.272;2023-02-11T03:00:57;21.02;25.63
71514;DHT22;59335;46.652;21.272;2023-02-11T03:04:13;21.00;25.59
71514;DHT22;59335;46.652;21.272;2023-02-11T03:10:56;21.04;25.46
71514;DHT22;59335;46.652;21.272;2023-02-11T03:14:02;20.96;25.47
71514;DHT22;59335;46.652;21.272;2023-02-11T03:17:09;20.99;25.53
71514;DHT22;59335;46.652;21.272;2023-02-11T03:20:14;21.02;25.50
71514;DHT22;59335;46.652;21.272;2023-02-11T03:23:30;20.97;25.50
71514;DHT22;59335;46.652;21.272;2023-02-11T03:26:42;21.02;25.47
71514;DHT22;59335;46.652;21.272;2023-02-11T03:29:58;20.97;25.41
71514;DHT22;59335;46.652;21.272;2023-02-11T03:33:09;20.97;25.43
71514;DHT22;59335;46.652;21.272;2023-02-11T03:36:18;20.99;25.40
71514;DHT22;59335;46.652;21.272;2023-02-11T03:39:33;21.02;25.37
71514;DHT22;59335;46.652;21.272;2023-02-11T03:42:45;21.03;25.43
71514;DHT22;59335;46.652;21.272;2023-02-11T03:45:51;20.97;25.38
71514;DHT22;59335;46.652;21.272;2023-02-11T03:49:00;20.94;25.32
71514;DHT22;59335;46.652;21.272;2023-02-11T03:52:06;20.96;25.32
71514;DHT22;59335;46.652;21.272;2023-02-11T03:55:16;20.99;25.29
71514;DHT22;59335;46.652;21.272;2023-02-11T03:58:19;20.92;25.25
71514;DHT22;59335;46.652;21.272;2023-02-11T04:01:22;20.97;25.27
71514;DHT22;59335;46.652;21.272;2023-02-11T04:04:25;20.97;25.17
71514;DHT22;59335;46.652;21.272;2023-02-11T04:07:28;20.94;25.24
71514;DHT22;59335;46.652;21.272;2023-02-11T04:10:30;20.90;25.25
71514;DHT22;59335;46.652;21.272;2023-02-11T04:13:33;20.89;25.25
71514;DHT22;59335;46.652;21.272;2023-02-11T04:16:36;20.93;25.17
71514;DHT22;59335;46.652;21.272;2023-02-11T04:19:39;20.96;25.14
71514;DHT22;59335;46.652;21.272;2023-02-11T04:22:42;20.96;25.14
71514;DHT22;59335;46.652;21.272;2023-02-11T04:25:44;20.94;25.14
71514;DHT22;59335;46.652;21.272;2023-02-11T04:28:48;20.93;25.10
71514;DHT22;59335;46.652;21.272;2023-02-11T04:31:50;20.92;25.16
71514;DHT22;59335;46.652;21.272;2023-02-11T04:34:53;20.94;25.09
71514;DHT22;59335;46.652;21.272;2023-02-11T04:37:56;20.96;25.06
71514;DHT22;59335;46.652;21.272;2023-02-11T04:40:59;20.89;25.12
71514;DHT22;59335;46.652;21.272;2023-02-11T04:44:02;20.89;25.15
71514;DHT22;59335;46.652;21.272;2023-02-11T04:47:05;20.87;25.06
71514;DHT22;59335;46.652;21.272;2023-02-11T04:50:08;20.89;25.11
71514;DHT22;59335;46.652;21.272;2023-02-11T04:53:11;20.89;25.04
71514;DHT22;59335;46.652;21.272;2023-02-11T04:56:14;20.89;25.03
71514;DHT22;59335;46.652;21.272;2023-02-11T04:59:17;20.90;24.97
71514;DHT22;59335;46.652;21.272;2023-02-11T05:02:19;20.92;25.04
71514;DHT22;59335;46.652;21.272;2023-02-11T05:05:23;20.87;25.01
71514;DHT22;59335;46.652;21.272;2023-02-11T05:08:26;20.87;25.01
71514;DHT22;59335;46.652;21.272;2023-02-11T05:11:29;20.93;24.94
71514;DHT22;59335;46.652;21.272;2023-02-11T05:14:31;20.92;24.94
71514;DHT22;59335;46.652;21.272;2023-02-11T05:17:34;20.90;24.95
71514;DHT22;59335;46.652;21.272;2023-02-11T05:20:37;20.86;24.92
71514;DHT22;59335;46.652;21.272;2023-02-11T05:23:40;20.86;24.89
71514;DHT22;59335;46.652;21.272;2023-02-11T05:26:43;20.84;24.92
71514;DHT22;59335;46.652;21.272;2023-02-11T05:29:46;20.86;24.92
71514;DHT22;59335;46.652;21.272;2023-02-11T05:32:49;20.86;24.86
71514;DHT22;59335;46.652;21.272;2023-02-11T05:36:00;20.86;24.83
71514;DHT22;59335;46.652;21.272;2023-02-11T05:39:03;20.86;24.89
71514;DHT22;59335;46.652;21.272;2023-02-11T05:42:07;20.80;24.87
71514;DHT22;59335;46.652;21.272;2023-02-11T05:45:09;20.82;24.86
71514;DHT22;59335;46.652;21.272;2023-02-11T05:48:12;20.84;24.87
71514;DHT22;59335;46.652;21.272;2023-02-11T05:51:15;20.82;24.90
71514;DHT22;59335;46.652;21.272;2023-02-11T05:54:18;20.82;24.87
71514;DHT22;59335;46.652;21.272;2023-02-11T05:57:21;20.84;24.83
71514;DHT22;59335;46.652;21.272;2023-02-11T06:00:24;20.84;24.84
71514;DHT22;59335;46.652;21.272;2023-02-11T06:03:26;20.83;24.81
71514;DHT22;59335;46.652;21.272;2023-02-11T06:06:29;20.84;24.83
71514;DHT22;59335;46.652;21.272;2023-02-11T06:09:32;20.89;24.77
71514;DHT22;59335;46.652;21.272;2023-02-11T06:12:36;20.89;24.74
71514;DHT22;59335;46.652;21.272;2023-02-11T06:15:39;20.86;24.69
71514;DHT22;59335;46.652;21.272;2023-02-11T06:18:42;20.86;24.71
71514;DHT22;59335;46.652;21.272;2023-02-11T06:21:47;20.90;24.67
71514;DHT22;59335;46.652;21.272;2023-02-11T06:24:50;20.86;24.68
71514;DHT22;59335;46.652;21.272;2023-02-11T06:28:03;20.90;24.70
71514;DHT22;59335;46.652;21.272;2023-02-11T06:31:07;20.90;24.64
71514;DHT22;59335;46.652;21.272;2023-02-11T06:34:11;20.90;24.71
71514;DHT22;59335;46.652;21.272;2023-02-11T06:37:13;20.93;24.68
71514;DHT22;59335;46.652;21.272;2023-02-11T06:40:16;20.96;24.67
71514;DHT22;59335;46.652;21.272;2023-02-11T06:43:19;21.02;24.55
71514;DHT22;59335;46.652;21.272;2023-02-11T06:46:22;21.07;24.65
71514;DHT22;59335;46.652;21.272;2023-02-11T06:49:25;21.08;24.50
71514;DHT22;59335;46.652;21.272;2023-02-11T06:52:28;21.14;24.50
71514;DHT22;59335;46.652;21.272;2023-02-11T06:55:33;21.17;24.46
71514;DHT22;59335;46.652;21.272;2023-02-11T06:58:36;21.11;24.49
71514;DHT22;59335;46.652;21.272;2023-02-11T07:01:39;21.15;24.53
71514;DHT22;59335;46.652;21.272;2023-02-11T07:04:42;21.19;24.47
71514;DHT22;59335;46.652;21.272;2023-02-11T07:07:44;21.21;24.41
71514;DHT22;59335;46.652;21.272;2023-02-11T07:10:47;21.24;24.49
71514;DHT22;59335;46.652;21.272;2023-02-11T07:13:51;21.26;24.43
71514;DHT22;59335;46.652;21.272;2023-02-11T07:16:55;21.30;24.37
71514;DHT22;59335;46.652;21.272;2023-02-11T07:19:57;21.32;24.33
71514;DHT22;59335;46.652;21.272;2023-02-11T07:23:00;21.37;24.32
71514;DHT22;59335;46.652;21.272;2023-02-11T07:26:04;21.40;24.30
71514;DHT22;59335;46.652;21.272;2023-02-11T07:29:07;21.41;24.32
71514;DHT22;59335;46.652;21.272;2023-02-11T07:32:10;21.45;24.35
71514;DHT22;59335;46.652;21.272;2023-02-11T07:35:13;21.47;24.34
71514;DHT22;59335;46.652;21.272;2023-02-11T07:38:16;21.50;24.46
71514;DHT22;59335;46.652;21.272;2023-02-11T07:41:20;21.51;24.56
71514;DHT22;59335;46.652;21.272;2023-02-11T07:44:24;21.57;24.74
71514;DHT22;59335;46.652;21.272;2023-02-11T07:47:26;21.59;25.04
71514;DHT22;59335;46.652;21.272;2023-02-11T07:50:29;21.61;25.20
71514;DHT22;59335;46.652;21.272;2023-02-11T07:53:32;21.65;25.32
71514;DHT22;59335;46.652;21.272;2023-02-11T07:56:35;21.68;25.27
71514;DHT22;59335;46.652;21.272;2023-02-11T07:59:38;21.69;25.25
71514;DHT22;59335;46.652;21.272;2023-02-11T08:02:41;21.72;25.25
71514;DHT22;59335;46.652;21.272;2023-02-11T08:05:44;21.75;25.16
71514;DHT22;59335;46.652;21.272;2023-02-11T08:08:47;21.77;25.12
71514;DHT22;59335;46.652;21.272;2023-02-11T08:11:50;21.81;25.12
71514;DHT22;59335;46.652;21.272;2023-02-11T08:14:53;21.82;25.17
71514;DHT22;59335;46.652;21.272;2023-02-11T08:17:57;21.82;25.15
71514;DHT22;59335;46.652;21.272;2023-02-11T08:21:07;21.85;24.95
71514;DHT22;59335;46.652;21.272;2023-02-11T08:24:11;21.86;25.00
71514;DHT22;59335;46.652;21.272;2023-02-11T08:27:14;21.86;25.03
71514;DHT22;59335;46.652;21.272;2023-02-11T08:30:17;21.90;25.00
71514;DHT22;59335;46.652;21.272;2023-02-11T08:33:19;21.92;25.00
71514;DHT22;59335;46.652;21.272;2023-02-11T08:36:33;21.93;24.99
71514;DHT22;59335;46.652;21.272;2023-02-11T08:39:36;21.95;24.90
71514;DHT22;59335;46.652;21.272;2023-02-11T08:42:39;21.95;24.95
71514;DHT22;59335;46.652;21.272;2023-02-11T08:45:42;21.96;24.95
71514;DHT22;59335;46.652;21.272;2023-02-11T08:48:46;21.98;24.96
71514;DHT22;59335;46.652;21.272;2023-02-11T08:51:49;22.02;24.98
71514;DHT22;59335;46.652;21.272;2023-02-11T08:54:52;21.99;24.96
71514;DHT22;59335;46.652;21.272;2023-02-11T08:57:55;21.99;25.09
71514;DHT22;59335;46.652;21.272;2023-02-11T09:00:58;22.00;25.09
71514;DHT22;59335;46.652;21.272;2023-02-11T09:04:01;22.00;25.10
71514;DHT22;59335;46.652;21.272;2023-02-11T09:07:04;21.99;25.10
71514;DHT22;59335;46.652;21.272;2023-02-11T09:10:07;22.00;25.19
71514;DHT22;59335;46.652;21.272;2023-02-11T09:13:10;22.00;25.18
71514;DHT22;59335;46.652;21.272;2023-02-11T09:16:22;22.00;25.18
71514;DHT22;59335;46.652;21.272;2023-02-11T09:19:25;22.02;25.15
71514;DHT22;59335;46.652;21.272;2023-02-11T09:22:28;21.99;25.15
71514;DHT22;59335;46.652;21.272;2023-02-11T09:25:31;21.98;25.28
71514;DHT22;59335;46.652;21.272;2023-02-11T09:28:34;21.99;25.39
71514;DHT22;59335;46.652;21.272;2023-02-11T09:31:37;21.96;25.39
71514;DHT22;59335;46.652;21.272;2023-02-11T09:34:40;21.95;25.39
71514;DHT22;59335;46.652;21.272;2023-02-11T09:37:43;21.96;25.40
71514;DHT22;59335;46.652;21.272;2023-02-11T09:40:45;21.96;25.46
71514;DHT22;59335;46.652;21.272;2023-02-11T09:43:52;21.96;25.51
71514;DHT22;59335;46.652;21.272;2023-02-11T09:46:58;21.95;25.55
71514;DHT22;59335;46.652;21.272;2023-02-11T09:50:10;21.95;25.57
71514;DHT22;59335;46.652;21.272;2023-02-11T09:53:19;21.95;25.55
71514;DHT22;59335;46.652;21.272;2023-02-11T09:56:23;21.93;25.64
71514;DHT22;59335;46.652;21.272;2023-02-11T09:59:26;21.95;25.61
71514;DHT22;59335;46.652;21.272;2023-02-11T10:05:41;21.96;25.51
71514;DHT22;59335;46.652;21.272;2023-02-11T10:22:44;21.92;25.79
71514;DHT22;59335;46.652;21.272;2023-02-11T10:25:51;21.89;25.78
71514;DHT22;59335;46.652;21.272;2023-02-11T10:29:01;21.89;25.58
71514;DHT22;59335;46.652;21.272;2023-02-11T10:32:19;21.88;25.55
71514;DHT22;59335;46.652;21.272;2023-02-11T10:35:24;21.89;25.50
71514;DHT22;59335;46.652;21.272;2023-02-11T10:38:29;21.86;25.37
71514;DHT22;59335;46.652;21.272;2023-02-11T10:41:36;21.86;25.40
71514;DHT22;59335;46.652;21.272;2023-02-11T10:45:02;21.86;25.41
71514;DHT22;59335;46.652;21.272;2023-02-11T10:51:40;21.88;25.34
71514;DHT22;59335;46.652;21.272;2023-02-11T10:58:01;21.85;25.26
71514;DHT22;59335;46.652;21.272;2023-02-11T11:01:04;21.83;25.20
71514;DHT22;59335;46.652;21.272;2023-02-11T11:04:42;21.85;25.24
71514;DHT22;59335;46.652;21.272;2023-02-11T11:08:06;21.83;25.21
71514;DHT22;59335;46.652;21.272;2023-02-11T11:11:20;21.83;25.16
71514;DHT22;59335;46.652;21.272;2023-02-11T11:14:24;21.85;25.21
71514;DHT22;59335;46.652;21.272;2023-02-11T11:17:30;21.85;25.15
71514;DHT22;59335;46.652;21.272;2023-02-11T11:20:33;21.81;25.23
71514;DHT22;59335;46.652;21.272;2023-02-11T11:23:38;21.83;25.24
71514;DHT22;59335;46.652;21.272;2023-02-11T11:26:44;21.81;25.26
71514;DHT22;59335;46.652;21.272;2023-02-11T11:29:51;21.81;25.26
71514;DHT22;59335;46.652;21.272;2023-02-11T11:32:55;21.83;25.27
71514;DHT22;59335;46.652;21.272;2023-02-11T11:39:31;21.83;25.35
71514;DHT22;59335;46.652;21.272;2023-02-11T11:42:37;21.82;25.36
71514;DHT22;59335;46.652;21.272;2023-02-11T11:45:57;21.85;25.39
71514;DHT22;59335;46.652;21.272;2023-02-11T11:49:11;21.82;25.36
71514;DHT22;59335;46.652;21.272;2023-02-11T11:52:36;21.85;25.35
71514;DHT22;59335;46.652;21.272;2023-02-11T11:58:51;21.83;25.48
71514;DHT22;59335;46.652;21.272;2023-02-11T12:02:41;21.82;25.38
71514;DHT22;59335;46.652;21.272;2023-02-11T12:06:18;21.82;25.45
71514;DHT22;59335;46.652;21.272;2023-02-11T12:26:21;21.85;25.57
71514;DHT22;59335;46.652;21.272;2023-02-11T12:56:22;21.85;25.83
71514;DHT22;59335;46.652;21.272;2023-02-11T13:06:14;21.81;25.81
71514;DHT22;59335;46.652;21.272;2023-02-11T13:09:27;21.82;25.83
71514;DHT22;59335;46.652;21.272;2023-02-11T13:12:31;21.82;25.85
71514;DHT22;59335;46.652;21.272;2023-02-11T13:16:08;21.81;25.84
71514;DHT22;59335;46.652;21.272;2023-02-11T13:22:38;21.79;25.92
71514;DHT22;59335;46.652;21.272;2023-02-11T13:39:04;21.77;25.92
71514;DHT22;59335;46.652;21.272;2023-02-11T13:42:14;21.79;25.93
71514;DHT22;59335;46.652;21.272;2023-02-11T13:48:38;21.78;26.01
71514;DHT22;59335;46.652;21.272;2023-02-11T13:51:48;21.78;25.97
71514;DHT22;59335;46.652;21.272;2023-02-11T13:54:53;21.78;25.92
71514;DHT22;59335;46.652;21.272;2023-02-11T14:08:32;21.78;25.99
71514;DHT22;59335;46.652;21.272;2023-02-11T14:12:33;21.77;26.02
71514;DHT22;59335;46.652;21.272;2023-02-11T14:15:38;21.79;26.09
71514;DHT22;59335;46.652;21.272;2023-02-11T14:21:47;21.75;26.02
71514;DHT22;59335;46.652;21.272;2023-02-11T14:24:59;21.77;26.04
71514;DHT22;59335;46.652;21.272;2023-02-11T14:28:17;21.75;25.97
71514;DHT22;59335;46.652;21.272;2023-02-11T14:42:03;21.72;25.96
71514;DHT22;59335;46.652;21.272;2023-02-11T14:45:09;21.74;25.97
71514;DHT22;59335;46.652;21.272;2023-02-11T14:48:17;21.71;26.04
71514;DHT22;59335;46.652;21.272;2023-02-11T14:51:38;21.71;25.96
71514;DHT22;59335;46.652;21.272;2023-02-11T14:54:43;21.71;26.04
71514;DHT22;59335;46.652;21.272;2023-02-11T14:58:10;21.72;25.99
71514;DHT22;59335;46.652;21.272;2023-02-11T15:01:38;21.72;25.97
71514;DHT22;59335;46.652;21.272;2023-02-11T15:04:43;21.68;26.00
71514;DHT22;59335;46.652;21.272;2023-02-11T15:07:50;21.69;25.97
71514;DHT22;59335;46.652;21.272;2023-02-11T15:10:55;21.69;25.96
71514;DHT22;59335;46.652;21.272;2023-02-11T15:14:15;21.69;26.05
71514;DHT22;59335;46.652;21.272;2023-02-11T15:17:23;21.66;26.02
71514;DHT22;59335;46.652;21.272;2023-02-11T15:20:30;21.68;26.06
71514;DHT22;59335;46.652;21.272;2023-02-11T15:23:36;21.68;26.02
71514;DHT22;59335;46.652;21.272;2023-02-11T15:26:40;21.65;26.03
71514;DHT22;59335;46.652;21.272;2023-02-11T15:29:46;21.68;26.00
71514;DHT22;59335;46.652;21.272;2023-02-11T15:33:03;21.65;26.02
71514;DHT22;59335;46.652;21.272;2023-02-11T15:36:10;21.63;25.97
71514;DHT22;59335;46.652;21.272;2023-02-11T15:39:29;21.62;25.97
71514;DHT22;59335;46.652;21.272;2023-02-11T15:42:34;21.63;26.02
71514;DHT22;59335;46.652;21.272;2023-02-11T15:45:57;21.63;26.01
71514;DHT22;59335;46.652;21.272;2023-02-11T15:49:03;21.62;25.98
71514;DHT22;59335;46.652;21.272;2023-02-11T15:52:13;21.62;26.00
71514;DHT22;59335;46.652;21.272;2023-02-11T15:55:18;21.59;26.01
71514;DHT22;59335;46.652;21.272;2023-02-11T15:58:22;21.59;25.94
71514;DHT22;59335;46.652;21.272;2023-02-11T16:01:30;21.61;25.94
71514;DHT22;59335;46.652;21.272;2023-02-11T16:04:37;21.58;26.05
71514;DHT22;59335;46.652;21.272;2023-02-11T16:07:46;21.59;25.97
71514;DHT22;59335;46.652;21.272;2023-02-11T16:11:01;21.59;26.00
71514;DHT22;59335;46.652;21.272;2023-02-11T16:14:36;21.57;25.92
71514;DHT22;59335;46.652;21.272;2023-02-11T16:17:42;21.57;25.96
71514;DHT22;59335;46.652;21.272;2023-02-11T16:20:47;21.54;26.01
71514;DHT22;59335;46.652;21.272;2023-02-11T16:23:54;21.52;25.96
71514;DHT22;59335;46.652;21.272;2023-02-11T16:27:04;21.54;25.90
71514;DHT22;59335;46.652;21.272;2023-02-11T16:30:28;21.52;25.96
71514;DHT22;59335;46.652;21.272;2023-02-11T16:33:34;21.50;26.02
71514;DHT22;59335;46.652;21.272;2023-02-11T16:36:38;21.55;25.96
71514;DHT22;59335;46.652;21.272;2023-02-11T16:39:44;21.51;25.95
71514;DHT22;59335;46.652;21.272;2023-02-11T16:42:49;21.54;25.93
71514;DHT22;59335;46.652;21.272;2023-02-11T16:45:57;21.54;25.92
71514;DHT22;59335;46.652;21.272;2023-02-11T16:49:32;21.54;25.93
71514;DHT22;59335;46.652;21.272;2023-02-11T16:52:37;21.51;25.93
71514;DHT22;59335;46.652;21.272;2023-02-11T16:55:41;21.51;25.93
71514;DHT22;59335;46.652;21.272;2023-02-11T16:58:45;21.52;25.93
71514;DHT22;59335;46.652;21.272;2023-02-11T17:01:52;21.52;25.96
71514;DHT22;59335;46.652;21.272;2023-02-11T17:04:58;21.51;25.95
71514;DHT22;59335;46.652;21.272;2023-02-11T17:08:02;21.52;25.92
71514;DHT22;59335;46.652;21.272;2023-02-11T17:11:09;21.51;25.95
71514;DHT22;59335;46.652;21.272;2023-02-11T17:14:13;21.52;25.90
71514;DHT22;59335;46.652;21.272;2023-02-11T17:17:17;21.52;25.89
71514;DHT22;59335;46.652;21.272;2023-02-11T17:20:21;21.50;25.89
71514;DHT22;59335;46.652;21.272;2023-02-11T17:23:25;21.51;25.87
71514;DHT22;59335;46.652;21.272;2023-02-11T17:26:31;21.52;25.93
71514;DHT22;59335;46.652;21.272;2023-02-11T17:29:37;21.50;25.87
71514;DHT22;59335;46.652;21.272;2023-02-11T17:32:42;21.50;25.87
71514;DHT22;59335;46.652;21.272;2023-02-11T17:35:49;21.50;25.84
71514;DHT22;59335;46.652;21.272;2023-02-11T17:39:01;21.54;25.87
71514;DHT22;59335;46.652;21.272;2023-02-11T17:42:10;21.51;25.84
71514;DHT22;59335;46.652;21.272;2023-02-11T17:45:15;21.51;25.89
71514;DHT22;59335;46.652;21.272;2023-02-11T17:48:20;21.50;25.87
71514;DHT22;59335;46.652;21.272;2023-02-11T17:51:26;21.48;25.78
71514;DHT22;59335;46.652;21.272;2023-02-11T17:54:30;21.47;25.82
71514;DHT22;59335;46.652;21.272;2023-02-11T17:57:36;21.47;25.85
71514;DHT22;59335;46.652;21.272;2023-02-11T18:00:41;21.47;25.88
71514;DHT22;59335;46.652;21.272;2023-02-11T18:03:48;21.47;25.90
71514;DHT22;59335;46.652;21.272;2023-02-11T18:06:54;21.45;25.88
71514;DHT22;59335;46.652;21.272;2023-02-11T18:10:00;21.52;25.87
71514;DHT22;59335;46.652;21.272;2023-02-11T18:13:05;21.48;25.84
71514;DHT22;59335;46.652;21.272;2023-02-11T18:16:09;21.47;25.84
71514;DHT22;59335;46.652;21.272;2023-02-11T18:19:18;21.45;25.85
71514;DHT22;59335;46.652;21.272;2023-02-11T18:22:24;21.50;25.73
71514;DHT22;59335;46.652;21.272;2023-02-11T18:25:28;21.50;25.84
71514;DHT22;59335;46.652;21.272;2023-02-11T18:28:33;21.48;25.82
71514;DHT22;59335;46.652;21.272;2023-02-11T18:31:38;21.47;25.88
71514;DHT22;59335;46.652;21.272;2023-02-11T18:34:43;21.48;25.87
71514;DHT22;59335;46.652;21.272;2023-02-11T18:37:48;21.50;25.79
71514;DHT22;59335;46.652;21.272;2023-02-11T18:40:55;21.50;25.84
71514;DHT22;59335;46.652;21.272;2023-02-11T18:44:03;21.51;25.82
71514;DHT22;59335;46.652;21.272;2023-02-11T18:47:07;21.48;25.81
71514;DHT22;59335;46.652;21.272;2023-02-11T18:50:12;21.47;25.87
71514;DHT22;59335;46.652;21.272;2023-02-11T18:53:19;21.48;25.82
71514;DHT22;59335;46.652;21.272;2023-02-11T18:56:24;21.50;25.84
71514;DHT22;59335;46.652;21.272;2023-02-11T18:59:32;21.47;25.82
71514;DHT22;59335;46.652;21.272;2023-02-11T19:02:39;21.50;25.82
71514;DHT22;59335;46.652;21.272;2023-02-11T19:05:47;21.50;25.88
71514;DHT22;59335;46.652;21.272;2023-02-11T19:08:55;21.48;25.87
71514;DHT22;59335;46.652;21.272;2023-02-11T19:12:03;21.50;25.90
71514;DHT22;59335;46.652;21.272;2023-02-11T19:15:07;21.50;25.81
71514;DHT22;59335;46.652;21.272;2023-02-11T19:18:12;21.51;25.88
71514;DHT22;59335;46.652;21.272;2023-02-11T19:21:18;21.48;25.81
71514;DHT22;59335;46.652;21.272;2023-02-11T19:24:28;21.48;25.87
71514;DHT22;59335;46.652;21.272;2023-02-11T19:27:33;21.50;25.88
71514;DHT22;59335;46.652;21.272;2023-02-11T19:30:37;21.50;25.85
71514;DHT22;59335;46.652;21.272;2023-02-11T19:33:42;21.50;25.84
71514;DHT22;59335;46.652;21.272;2023-02-11T19:36:48;21.50;25.87
71514;DHT22;59335;46.652;21.272;2023-02-11T19:39:56;21.52;25.73
71514;DHT22;59335;46.652;21.272;2023-02-11T19:43:02;21.50;25.78
71514;DHT22;59335;46.652;21.272;2023-02-11T19:46:06;21.45;25.84
71514;DHT22;59335;46.652;21.272;2023-02-11T19:49:14;21.45;25.79
71514;DHT22;59335;46.652;21.272;2023-02-11T19:52:22;21.44;25.86
71514;DHT22;59335;46.652;21.272;2023-02-11T19:55:28;21.45;25.81
71514;DHT22;59335;46.652;21.272;2023-02-11T19:58:35;21.44;25.92
71514;DHT22;59335;46.652;21.272;2023-02-11T20:01:41;21.45;25.86
71514;DHT22;59335;46.652;21.272;2023-02-11T20:04:46;21.48;25.79
71514;DHT22;59335;46.652;21.272;2023-02-11T20:07:52;21.44;25.82
71514;DHT22;59335;46.652;21.272;2023-02-11T20:11:05;21.44;25.85
71514;DHT22;59335;46.652;21.272;2023-02-11T20:14:11;21.48;25.79
71514;DHT22;59335;46.652;21.272;2023-02-11T20:17:17;21.47;25.82
71514;DHT22;59335;46.652;21.272;2023-02-11T20:20:26;21.47;25.82
71514;DHT22;59335;46.652;21.272;2023-02-11T20:23:32;21.45;25.81
71514;DHT22;59335;46.652;21.272;2023-02-11T20:26:37;21.48;25.81
71514;DHT22;59335;46.652;21.272;2023-02-11T20:29:45;21.50;25.75
71514;DHT22;59335;46.652;21.272;2023-02-11T20:32:49;21.45;25.82
71514;DHT22;59335;46.652;21.272;2023-02-11T20:35:56;21.48;25.79
71514;DHT22;59335;46.652;21.272;2023-02-11T20:39:02;21.44;25.77
71514;DHT22;59335;46.652;21.272;2023-02-11T20:42:09;21.45;25.76
71514;DHT22;59335;46.652;21.272;2023-02-11T20:45:17;21.48;25.82
71514;DHT22;59335;46.652;21.272;2023-02-11T20:48:22;21.42;25.79
71514;DHT22;59335;46.652;21.272;2023-02-11T20:51:29;21.44;25.78
71514;DHT22;59335;46.652;21.272;2023-02-11T20:54:33;21.45;25.78
71514;DHT22;59335;46.652;21.272;2023-02-11T20:57:38;21.45;25.76
71514;DHT22;59335;46.652;21.272;2023-02-11T21:00:47;21.44;25.82
71514;DHT22;59335;46.652;21.272;2023-02-11T21:03:56;21.42;25.79
71514;DHT22;59335;46.652;21.272;2023-02-11T21:07:02;21.42;25.71
71514;DHT22;59335;46.652;21.272;2023-02-11T21:10:08;21.42;25.83
71514;DHT22;59335;46.652;21.272;2023-02-11T21:13:12;21.44;25.78
71514;DHT22;59335;46.652;21.272;2023-02-11T21:16:19;21.41;25.80
71514;DHT22;59335;46.652;21.272;2023-02-11T21:19:27;21.42;25.78
71514;DHT22;59335;46.652;21.272;2023-02-11T21:22:33;21.42;25.82
71514;DHT22;59335;46.652;21.272;2023-02-11T21:25:40;21.45;25.78
71514;DHT22;59335;46.652;21.272;2023-02-11T21:28:44;21.47;25.74
71514;DHT22;59335;46.652;21.272;2023-02-11T21:31:51;21.44;25.82
71514;DHT22;59335;46.652;21.272;2023-02-11T21:34:55;21.45;25.75
71514;DHT22;59335;46.652;21.272;2023-02-11T21:38:02;21.44;25.79
71514;DHT22;59335;46.652;21.272;2023-02-11T21:41:07;21.47;25.73
71514;DHT22;59335;46.652;21.272;2023-02-11T21:44:11;21.45;25.78
71514;DHT22;59335;46.652;21.272;2023-02-11T21:47:15;21.41;25.83
71514;DHT22;59335;46.652;21.272;2023-02-11T21:50:18;21.41;25.83
71514;DHT22;59335;46.652;21.272;2023-02-11T21:53:22;21.44;25.76